Surface observations / UK / EGOM

Quebec | Canada | USA | France | UK | Europe | Elsewhere

Display: Info & Location for EGOM | Help decoding METAR


Raw surface observations for station EGOM
EGOM 301150Z 25023KT 9999 BKN017 SCT032 05/01 Q1002 WHT=
EGOM 301050Z 24020KT 9999 BKN016 SCT027 04/02 Q1002 WHT=
EGOM 300950Z 25018KT 9999 FEW007 BKN012 03/02 Q1003 GRN=
EGOM 300850Z 25013KT 9999 FEW005 01/01 Q1002 BLU=
EGOM 300750Z 25009KT 9999 FEW014 BKN180 00/M00 Q1002 BLU=
EGOM 300650Z AUTO 25012KT 9999 NCD M00/M01 Q1001=
EGOM 300550Z AUTO 27014KT 9999 FEW014/// M01/M01 Q1000=
EGOM 300450Z AUTO 27017KT 9999 BKN003/// M00/M01 Q0999 RESN=
EGOM 300350Z AUTO 27015KT 9999 SCT003/// M00/M01 Q0997=
EGOM 300250Z AUTO 26014KT 1400 BR BKN002/// SCT022/// M00/M00 Q0996 RESN=
EGOM 300150Z AUTO 26017KT 9999 SCT002/// BKN019/// 00/00 Q0995 RESN=
EGOM 300050Z AUTO 27019KT 0800 SHSN BKN003/// 00/M00 Q0994=
EGOM 292350Z AUTO 26015KT 9999 FEW024/// 01/M01 Q0994=
EGOM 292250Z AUTO 26019KT 9999 BKN024/// 02/M01 Q0993=
EGOM 292150Z AUTO 27014KT 9999 FEW027/// SCT033/// 01/M00 Q0992=
EGOM 292050Z AUTO 27021KT 9999 FEW012/// BKN050/// 01/M00 Q0991 RERA=
EGOM 291950Z AUTO 27018KT 9999 BKN027/// 03/00 Q0991=
EGOM 291850Z AUTO 27024G35KT 9999 FEW029/// SCT037/// 03/M00 Q0990=
EGOM 291750Z AUTO 28019G29KT 9999 FEW013/// SCT070/// 04/02 Q0989 RERA=
EGOM 291650Z AUTO 25019G29KT 9999 -SHRA SCT012/// SCT023/// 05/03 Q0988=
EGOM 291550Z AUTO 25016KT 9999 -SHRA FEW022/// SCT027/// BKN034/// 05/04 Q0987=
EGOM 291450Z AUTO 26018KT 9999 SCT007/// SCT043/// 05/04 Q0987 RERA=
EGOM 291350Z AUTO 26020KT 6000 -SHRA SCT006/// BKN035/// 05/04 Q0987=
EGOM 291250Z AUTO 26018KT 9999 FEW006/// BKN050/// 06/05 Q0987 RERA=
EGOM 291150Z AUTO 25018KT 9999 -SHRA BKN005/// 05/05 Q0987=